sensor_id;sensor_type;location;lat;lon;timestamp;P1;durP1;ratioP1;P2;durP2;ratioP2
79330;SDS011;68797;49.782;19.054;2024-01-06T00:00:21;89.97;;;41.13;;
79330;SDS011;68797;49.782;19.054;2024-01-06T00:03:09;89.05;;;41.30;;
79330;SDS011;68797;49.782;19.054;2024-01-06T00:05:36;88.25;;;39.88;;
79330;SDS011;68797;49.782;19.054;2024-01-06T00:08:04;85.95;;;37.80;;
79330;SDS011;68797;49.782;19.054;2024-01-06T00:10:31;83.22;;;37.10;;
79330;SDS011;68797;49.782;19.054;2024-01-06T00:12:57;92.30;;;43.22;;
79330;SDS011;68797;49.782;19.054;2024-01-06T00:15:24;90.55;;;43.90;;
79330;SDS011;68797;49.782;19.054;2024-01-06T00:17:54;72.15;;;32.80;;
79330;SDS011;68797;49.782;19.054;2024-01-06T00:20:21;81.32;;;38.35;;
79330;SDS011;68797;49.782;19.054;2024-01-06T00:22:49;81.15;;;33.88;;
79330;SDS011;68797;49.782;19.054;2024-01-06T00:25:16;73.13;;;34.65;;
79330;SDS011;68797;49.782;19.054;2024-01-06T00:27:42;53.38;;;21.02;;
79330;SDS011;68797;49.782;19.054;2024-01-06T00:30:09;63.97;;;29.63;;
79330;SDS011;68797;49.782;19.054;2024-01-06T00:32:35;62.25;;;26.83;;
79330;SDS011;68797;49.782;19.054;2024-01-06T00:35:04;17.52;;;6.63;;
79330;SDS011;68797;49.782;19.054;2024-01-06T00:37:31;15.88;;;6.47;;
79330;SDS011;68797;49.782;19.054;2024-01-06T00:39:59;15.98;;;6.30;;
79330;SDS011;68797;49.782;19.054;2024-01-06T00:42:26;19.75;;;7.43;;
79330;SDS011;68797;49.782;19.054;2024-01-06T00:44:54;14.70;;;7.53;;
79330;SDS011;68797;49.782;19.054;2024-01-06T00:47:20;55.65;;;25.58;;
79330;SDS011;68797;49.782;19.054;2024-01-06T00:49:51;81.18;;;39.78;;
79330;SDS011;68797;49.782;19.054;2024-01-06T00:52:18;88.78;;;42.45;;
79330;SDS011;68797;49.782;19.054;2024-01-06T00:54:46;89.95;;;38.22;;
79330;SDS011;68797;49.782;19.054;2024-01-06T00:57:14;92.63;;;45.55;;
79330;SDS011;68797;49.782;19.054;2024-01-06T00:59:42;81.57;;;38.53;;
79330;SDS011;68797;49.782;19.054;2024-01-06T01:02:08;86.88;;;37.13;;
79330;SDS011;68797;49.782;19.054;2024-01-06T01:04:35;84.07;;;37.58;;
79330;SDS011;68797;49.782;19.054;2024-01-06T01:07:08;81.45;;;36.10;;
79330;SDS011;68797;49.782;19.054;2024-01-06T01:09:35;81.63;;;36.22;;
79330;SDS011;68797;49.782;19.054;2024-01-06T01:12:02;81.95;;;35.58;;
79330;SDS011;68797;49.782;19.054;2024-01-06T01:14:28;73.50;;;33.40;;
79330;SDS011;68797;49.782;19.054;2024-01-06T01:16:54;65.82;;;28.00;;
79330;SDS011;68797;49.782;19.054;2024-01-06T01:19:21;72.35;;;32.78;;
79330;SDS011;68797;49.782;19.054;2024-01-06T01:21:48;77.00;;;36.90;;
79330;SDS011;68797;49.782;19.054;2024-01-06T01:24:14;77.43;;;31.70;;
79330;SDS011;68797;49.782;19.054;2024-01-06T01:26:43;72.35;;;33.53;;
79330;SDS011;68797;49.782;19.054;2024-01-06T01:29:09;73.18;;;33.40;;
79330;SDS011;68797;49.782;19.054;2024-01-06T01:31:38;58.72;;;29.60;;
79330;SDS011;68797;49.782;19.054;2024-01-06T01:34:04;66.68;;;29.23;;
79330;SDS011;68797;49.782;19.054;2024-01-06T01:36:33;57.00;;;28.98;;
79330;SDS011;68797;49.782;19.054;2024-01-06T01:38:59;51.65;;;23.13;;
79330;SDS011;68797;49.782;19.054;2024-01-06T01:41:27;48.25;;;21.08;;
79330;SDS011;68797;49.782;19.054;2024-01-06T01:43:55;29.88;;;14.50;;
79330;SDS011;68797;49.782;19.054;2024-01-06T01:46:26;33.38;;;14.90;;
79330;SDS011;68797;49.782;19.054;2024-01-06T01:48:55;31.77;;;14.10;;
79330;SDS011;68797;49.782;19.054;2024-01-06T01:51:24;55.97;;;24.55;;
79330;SDS011;68797;49.782;19.054;2024-01-06T01:53:53;55.47;;;26.63;;
79330;SDS011;68797;49.782;19.054;2024-01-06T01:56:20;57.50;;;28.02;;
79330;SDS011;68797;49.782;19.054;2024-01-06T01:58:47;54.60;;;25.13;;
79330;SDS011;68797;49.782;19.054;2024-01-06T02:01:14;46.22;;;23.52;;
79330;SDS011;68797;49.782;19.054;2024-01-06T02:03:42;41.75;;;19.17;;
79330;SDS011;68797;49.782;19.054;2024-01-06T02:06:13;49.17;;;20.05;;
79330;SDS011;68797;49.782;19.054;2024-01-06T02:08:41;68.03;;;31.15;;
79330;SDS011;68797;49.782;19.054;2024-01-06T02:11:08;72.60;;;34.25;;
79330;SDS011;68797;49.782;19.054;2024-01-06T02:13:34;74.32;;;32.45;;
79330;SDS011;68797;49.782;19.054;2024-01-06T02:16:05;76.38;;;34.35;;
79330;SDS011;68797;49.782;19.054;2024-01-06T02:18:32;66.57;;;30.75;;
79330;SDS011;68797;49.782;19.054;2024-01-06T02:21:01;58.45;;;28.88;;
79330;SDS011;68797;49.782;19.054;2024-01-06T02:23:30;80.53;;;34.13;;
79330;SDS011;68797;49.782;19.054;2024-01-06T02:25:56;79.28;;;39.97;;
79330;SDS011;68797;49.782;19.054;2024-01-06T02:28:23;74.88;;;35.95;;
79330;SDS011;68797;49.782;19.054;2024-01-06T02:30:50;93.75;;;38.10;;
79330;SDS011;68797;49.782;19.054;2024-01-06T02:33:18;93.32;;;39.58;;
79330;SDS011;68797;49.782;19.054;2024-01-06T02:35:46;90.40;;;41.90;;
79330;SDS011;68797;49.782;19.054;2024-01-06T02:38:13;88.25;;;41.95;;
79330;SDS011;68797;49.782;19.054;2024-01-06T02:40:41;88.03;;;43.60;;
79330;SDS011;68797;49.782;19.054;2024-01-06T02:43:09;88.93;;;42.28;;
79330;SDS011;68797;49.782;19.054;2024-01-06T02:45:37;90.55;;;39.75;;
79330;SDS011;68797;49.782;19.054;2024-01-06T02:48:04;90.47;;;39.90;;
79330;SDS011;68797;49.782;19.054;2024-01-06T02:50:31;85.55;;;39.20;;
79330;SDS011;68797;49.782;19.054;2024-01-06T02:52:59;82.35;;;37.45;;
79330;SDS011;68797;49.782;19.054;2024-01-06T02:55:26;82.18;;;41.08;;
79330;SDS011;68797;49.782;19.054;2024-01-06T03:00:20;79.95;;;36.28;;
79330;SDS011;68797;49.782;19.054;2024-01-06T03:02:47;89.32;;;37.75;;
79330;SDS011;68797;49.782;19.054;2024-01-06T03:05:16;87.22;;;38.78;;
79330;SDS011;68797;49.782;19.054;2024-01-06T03:07:43;78.93;;;35.65;;
79330;SDS011;68797;49.782;19.054;2024-01-06T03:10:10;78.97;;;35.50;;
79330;SDS011;68797;49.782;19.054;2024-01-06T03:12:37;89.85;;;41.13;;
79330;SDS011;68797;49.782;19.054;2024-01-06T03:15:04;82.57;;;36.30;;
79330;SDS011;68797;49.782;19.054;2024-01-06T03:19:57;87.18;;;35.95;;
79330;SDS011;68797;49.782;19.054;2024-01-06T03:22:24;81.65;;;36.85;;
79330;SDS011;68797;49.782;19.054;2024-01-06T03:24:52;82.97;;;39.67;;
79330;SDS011;68797;49.782;19.054;2024-01-06T03:27:19;71.70;;;34.65;;
79330;SDS011;68797;49.782;19.054;2024-01-06T03:29:46;83.35;;;39.58;;
79330;SDS011;68797;49.782;19.054;2024-01-06T03:32:13;77.03;;;36.42;;
79330;SDS011;68797;49.782;19.054;2024-01-06T03:34:41;81.47;;;35.80;;
79330;SDS011;68797;49.782;19.054;2024-01-06T03:39:34;78.70;;;34.53;;
79330;SDS011;68797;49.782;19.054;2024-01-06T03:42:00;77.22;;;35.20;;
79330;SDS011;68797;49.782;19.054;2024-01-06T03:44:28;78.97;;;35.20;;
79330;SDS011;68797;49.782;19.054;2024-01-06T03:46:57;75.28;;;35.80;;
79330;SDS011;68797;49.782;19.054;2024-01-06T03:49:23;84.15;;;38.50;;
79330;SDS011;68797;49.782;19.054;2024-01-06T03:51:52;82.97;;;37.50;;
79330;SDS011;68797;49.782;19.054;2024-01-06T03:54:19;84.68;;;36.78;;
79330;SDS011;68797;49.782;19.054;2024-01-06T03:59:12;79.40;;;37.28;;
79330;SDS011;68797;49.782;19.054;2024-01-06T04:01:42;86.10;;;34.70;;
79330;SDS011;68797;49.782;19.054;2024-01-06T04:04:08;79.50;;;36.70;;
79330;SDS011;68797;49.782;19.054;2024-01-06T04:06:35;74.63;;;35.75;;
79330;SDS011;68797;49.782;19.054;2024-01-06T04:09:02;76.75;;;35.42;;
79330;SDS011;68797;49.782;19.054;2024-01-06T04:11:29;71.40;;;32.95;;
79330;SDS011;68797;49.782;19.054;2024-01-06T04:13:56;71.57;;;34.92;;
79330;SDS011;68797;49.782;19.054;2024-01-06T04:18:49;71.05;;;30.55;;
79330;SDS011;68797;49.782;19.054;2024-01-06T04:21:16;72.82;;;33.60;;
79330;SDS011;68797;49.782;19.054;2024-01-06T04:23:43;73.28;;;36.90;;
79330;SDS011;68797;49.782;19.054;2024-01-06T04:26:11;71.82;;;33.05;;
79330;SDS011;68797;49.782;19.054;2024-01-06T04:28:38;66.43;;;33.28;;
79330;SDS011;68797;49.782;19.054;2024-01-06T04:31:05;71.53;;;35.00;;
79330;SDS011;68797;49.782;19.054;2024-01-06T04:33:32;62.58;;;30.65;;
79330;SDS011;68797;49.782;19.054;2024-01-06T04:35:59;68.28;;;30.50;;
79330;SDS011;68797;49.782;19.054;2024-01-06T04:38:28;59.15;;;27.17;;
79330;SDS011;68797;49.782;19.054;2024-01-06T04:40:55;52.67;;;25.33;;
79330;SDS011;68797;49.782;19.054;2024-01-06T04:43:22;58.95;;;27.60;;
79330;SDS011;68797;49.782;19.054;2024-01-06T04:45:49;51.13;;;27.52;;
79330;SDS011;68797;49.782;19.054;2024-01-06T04:48:16;55.05;;;26.45;;
79330;SDS011;68797;49.782;19.054;2024-01-06T04:50:43;43.17;;;20.17;;
79330;SDS011;68797;49.782;19.054;2024-01-06T04:53:09;45.08;;;20.30;;
79330;SDS011;68797;49.782;19.054;2024-01-06T04:55:37;45.25;;;22.05;;
79330;SDS011;68797;49.782;19.054;2024-01-06T04:58:03;45.20;;;19.58;;
79330;SDS011;68797;49.782;19.054;2024-01-06T05:00:30;28.15;;;14.15;;
79330;SDS011;68797;49.782;19.054;2024-01-06T05:02:56;31.27;;;14.38;;
79330;SDS011;68797;49.782;19.054;2024-01-06T05:05:23;25.45;;;10.52;;
79330;SDS011;68797;49.782;19.054;2024-01-06T05:07:50;19.63;;;8.98;;
79330;SDS011;68797;49.782;19.054;2024-01-06T05:15:09;24.30;;;9.77;;
79330;SDS011;68797;49.782;19.054;2024-01-06T05:17:36;36.85;;;15.82;;
79330;SDS011;68797;49.782;19.054;2024-01-06T05:20:03;27.92;;;13.13;;
79330;SDS011;68797;49.782;19.054;2024-01-06T05:22:30;26.17;;;11.90;;
79330;SDS011;68797;49.782;19.054;2024-01-06T05:24:57;24.52;;;11.10;;
79330;SDS011;68797;49.782;19.054;2024-01-06T05:27:24;18.80;;;8.90;;
79330;SDS011;68797;49.782;19.054;2024-01-06T05:29:51;15.00;;;8.32;;
79330;SDS011;68797;49.782;19.054;2024-01-06T05:32:19;18.05;;;7.93;;
79330;SDS011;68797;49.782;19.054;2024-01-06T05:34:46;18.65;;;8.00;;
79330;SDS011;68797;49.782;19.054;2024-01-06T05:37:14;16.20;;;8.32;;
79330;SDS011;68797;49.782;19.054;2024-01-06T05:39:41;15.52;;;7.43;;
79330;SDS011;68797;49.782;19.054;2024-01-06T05:42:09;16.58;;;7.43;;
79330;SDS011;68797;49.782;19.054;2024-01-06T05:44:40;11.73;;;6.30;;
79330;SDS011;68797;49.782;19.054;2024-01-06T05:47:07;14.55;;;6.90;;
79330;SDS011;68797;49.782;19.054;2024-01-06T05:49:34;14.40;;;7.00;;
79330;SDS011;68797;49.782;19.054;2024-01-06T05:52:01;12.70;;;5.57;;
79330;SDS011;68797;49.782;19.054;2024-01-06T05:54:28;12.30;;;5.95;;
79330;SDS011;68797;49.782;19.054;2024-01-06T05:56:55;12.88;;;5.93;;
79330;SDS011;68797;49.782;19.054;2024-01-06T06:01:48;11.20;;;5.20;;
79330;SDS011;68797;49.782;19.054;2024-01-06T06:04:16;16.23;;;6.47;;
79330;SDS011;68797;49.782;19.054;2024-01-06T06:06:43;13.05;;;5.93;;
79330;SDS011;68797;49.782;19.054;2024-01-06T06:09:10;27.25;;;14.45;;
79330;SDS011;68797;49.782;19.054;2024-01-06T06:11:36;35.08;;;14.35;;
79330;SDS011;68797;49.782;19.054;2024-01-06T06:14:03;27.88;;;14.77;;
79330;SDS011;68797;49.782;19.054;2024-01-06T06:16:30;28.00;;;14.60;;
79330;SDS011;68797;49.782;19.054;2024-01-06T06:18:57;27.88;;;15.63;;
79330;SDS011;68797;49.782;19.054;2024-01-06T06:21:24;39.70;;;19.08;;
79330;SDS011;68797;49.782;19.054;2024-01-06T06:23:52;35.67;;;18.50;;
79330;SDS011;68797;49.782;19.054;2024-01-06T06:26:19;34.35;;;19.30;;
79330;SDS011;68797;49.782;19.054;2024-01-06T06:28:46;40.63;;;19.05;;
79330;SDS011;68797;49.782;19.054;2024-01-06T06:31:12;32.72;;;18.20;;
79330;SDS011;68797;49.782;19.054;2024-01-06T06:33:40;32.55;;;17.27;;
79330;SDS011;68797;49.782;19.054;2024-01-06T06:36:07;31.77;;;15.45;;
79330;SDS011;68797;49.782;19.054;2024-01-06T06:38:34;35.72;;;16.73;;
79330;SDS011;68797;49.782;19.054;2024-01-06T06:43:28;30.30;;;15.18;;
79330;SDS011;68797;49.782;19.054;2024-01-06T06:45:55;32.03;;;13.85;;
79330;SDS011;68797;49.782;19.054;2024-01-06T06:48:22;29.55;;;16.35;;
79330;SDS011;68797;49.782;19.054;2024-01-06T06:50:49;32.15;;;15.85;;
79330;SDS011;68797;49.782;19.054;2024-01-06T06:53:16;34.10;;;14.07;;
79330;SDS011;68797;49.782;19.054;2024-01-06T06:55:43;34.20;;;16.27;;
79330;SDS011;68797;49.782;19.054;2024-01-06T06:58:09;38.30;;;18.20;;
79330;SDS011;68797;49.782;19.054;2024-01-06T07:00:36;34.47;;;18.15;;
79330;SDS011;68797;49.782;19.054;2024-01-06T07:03:04;40.25;;;19.40;;
79330;SDS011;68797;49.782;19.054;2024-01-06T07:05:31;38.35;;;18.25;;
79330;SDS011;68797;49.782;19.054;2024-01-06T07:08:01;20.23;;;9.77;;
79330;SDS011;68797;49.782;19.054;2024-01-06T07:10:28;15.32;;;7.18;;
79330;SDS011;68797;49.782;19.054;2024-01-06T07:12:55;26.08;;;10.85;;
79330;SDS011;68797;49.782;19.054;2024-01-06T07:15:22;48.63;;;18.40;;
79330;SDS011;68797;49.782;19.054;2024-01-06T07:17:49;115.55;;;42.55;;
79330;SDS011;68797;49.782;19.054;2024-01-06T07:20:16;110.15;;;40.50;;
79330;SDS011;68797;49.782;19.054;2024-01-06T07:22:42;53.45;;;20.55;;
79330;SDS011;68797;49.782;19.054;2024-01-06T07:25:10;89.50;;;32.17;;
79330;SDS011;68797;49.782;19.054;2024-01-06T07:27:37;60.78;;;22.58;;
79330;SDS011;68797;49.782;19.054;2024-01-06T07:30:05;18.05;;;8.40;;
79330;SDS011;68797;49.782;19.054;2024-01-06T07:32:34;58.42;;;28.70;;
79330;SDS011;68797;49.782;19.054;2024-01-06T07:35:01;24.02;;;9.82;;
79330;SDS011;68797;49.782;19.054;2024-01-06T07:37:32;15.77;;;6.97;;
79330;SDS011;68797;49.782;19.054;2024-01-06T07:39:59;10.90;;;5.47;;
79330;SDS011;68797;49.782;19.054;2024-01-06T07:42:26;35.10;;;12.80;;
79330;SDS011;68797;49.782;19.054;2024-01-06T07:44:53;27.15;;;10.23;;
79330;SDS011;68797;49.782;19.054;2024-01-06T07:47:20;14.48;;;6.03;;
79330;SDS011;68797;49.782;19.054;2024-01-06T07:49:47;21.40;;;9.77;;
79330;SDS011;68797;49.782;19.054;2024-01-06T07:52:15;10.13;;;5.32;;
79330;SDS011;68797;49.782;19.054;2024-01-06T07:54:43;12.00;;;5.07;;
79330;SDS011;68797;49.782;19.054;2024-01-06T08:00:20;15.77;;;7.35;;
79330;SDS011;68797;49.782;19.054;2024-01-06T08:02:47;23.13;;;11.65;;
79330;SDS011;68797;49.782;19.054;2024-01-06T08:05:16;23.08;;;11.98;;
79330;SDS011;68797;49.782;19.054;2024-01-06T08:07:43;13.30;;;6.45;;
79330;SDS011;68797;49.782;19.054;2024-01-06T08:10:13;9.50;;;5.18;;
79330;SDS011;68797;49.782;19.054;2024-01-06T08:12:40;9.48;;;5.00;;
79330;SDS011;68797;49.782;19.054;2024-01-06T08:17:36;10.27;;;5.30;;
79330;SDS011;68797;49.782;19.054;2024-01-06T08:20:22;7.80;;;5.18;;
79330;SDS011;68797;49.782;19.054;2024-01-06T08:22:49;8.15;;;4.13;;
79330;SDS011;68797;49.782;19.054;2024-01-06T08:27:44;8.93;;;4.90;;
79330;SDS011;68797;49.782;19.054;2024-01-06T08:30:11;9.23;;;5.40;;
79330;SDS011;68797;49.782;19.054;2024-01-06T08:32:38;10.10;;;4.57;;
79330;SDS011;68797;49.782;19.054;2024-01-06T08:35:05;8.07;;;4.65;;
79330;SDS011;68797;49.782;19.054;2024-01-06T08:42:25;13.15;;;5.65;;
79330;SDS011;68797;49.782;19.054;2024-01-06T08:45:12;19.02;;;8.70;;
79330;SDS011;68797;49.782;19.054;2024-01-06T08:47:39;37.28;;;19.10;;
79330;SDS011;68797;49.782;19.054;2024-01-06T08:50:07;39.65;;;20.13;;
79330;SDS011;68797;49.782;19.054;2024-01-06T08:55:01;48.22;;;21.45;;
79330;SDS011;68797;49.782;19.054;2024-01-06T08:57:29;45.17;;;22.40;;
79330;SDS011;68797;49.782;19.054;2024-01-06T08:59:56;53.10;;;23.95;;
79330;SDS011;68797;49.782;19.054;2024-01-06T09:02:22;46.83;;;25.90;;
79330;SDS011;68797;49.782;19.054;2024-01-06T09:04:49;49.03;;;25.83;;
79330;SDS011;68797;49.782;19.054;2024-01-06T09:07:16;50.28;;;26.48;;
79330;SDS011;68797;49.782;19.054;2024-01-06T09:09:44;56.80;;;29.45;;
79330;SDS011;68797;49.782;19.054;2024-01-06T09:12:11;56.05;;;27.75;;
79330;SDS011;68797;49.782;19.054;2024-01-06T09:14:38;61.90;;;30.27;;
79330;SDS011;68797;49.782;19.054;2024-01-06T09:17:08;60.90;;;29.70;;
79330;SDS011;68797;49.782;19.054;2024-01-06T09:19:35;61.97;;;30.63;;
79330;SDS011;68797;49.782;19.054;2024-01-06T09:22:02;56.83;;;29.88;;
79330;SDS011;68797;49.782;19.054;2024-01-06T09:24:29;53.85;;;29.65;;
79330;SDS011;68797;49.782;19.054;2024-01-06T09:26:56;61.65;;;31.83;;
79330;SDS011;68797;49.782;19.054;2024-01-06T09:29:22;63.20;;;30.38;;
79330;SDS011;68797;49.782;19.054;2024-01-06T09:31:49;61.45;;;30.63;;
79330;SDS011;68797;49.782;19.054;2024-01-06T09:34:17;58.92;;;28.90;;
79330;SDS011;68797;49.782;19.054;2024-01-06T09:36:45;57.22;;;29.95;;
79330;SDS011;68797;49.782;19.054;2024-01-06T09:41:39;56.97;;;30.38;;
79330;SDS011;68797;49.782;19.054;2024-01-06T09:44:07;64.30;;;34.15;;
79330;SDS011;68797;49.782;19.054;2024-01-06T09:46:33;74.78;;;37.28;;
79330;SDS011;68797;49.782;19.054;2024-01-06T09:49:12;70.68;;;35.13;;
79330;SDS011;68797;49.782;19.054;2024-01-06T09:51:42;70.15;;;34.38;;
79330;SDS011;68797;49.782;19.054;2024-01-06T09:54:09;65.35;;;33.90;;
79330;SDS011;68797;49.782;19.054;2024-01-06T09:56:38;64.95;;;33.80;;
79330;SDS011;68797;49.782;19.054;2024-01-06T09:59:06;55.42;;;30.10;;
79330;SDS011;68797;49.782;19.054;2024-01-06T10:01:32;64.53;;;32.05;;
79330;SDS011;68797;49.782;19.054;2024-01-06T10:04:00;70.45;;;33.28;;
79330;SDS011;68797;49.782;19.054;2024-01-06T10:06:29;63.08;;;32.50;;
79330;SDS011;68797;49.782;19.054;2024-01-06T10:09:03;71.80;;;36.50;;
79330;SDS011;68797;49.782;19.054;2024-01-06T10:11:31;87.07;;;44.90;;
79330;SDS011;68797;49.782;19.054;2024-01-06T10:13:58;113.53;;;61.00;;
79330;SDS011;68797;49.782;19.054;2024-01-06T10:16:25;122.22;;;60.70;;
79330;SDS011;68797;49.782;19.054;2024-01-06T10:18:53;128.45;;;62.70;;
79330;SDS011;68797;49.782;19.054;2024-01-06T10:21:24;125.78;;;62.53;;
79330;SDS011;68797;49.782;19.054;2024-01-06T10:23:53;118.15;;;64.70;;
79330;SDS011;68797;49.782;19.054;2024-01-06T10:26:21;119.70;;;61.22;;
79330;SDS011;68797;49.782;19.054;2024-01-06T10:28:48;123.75;;;59.65;;
79330;SDS011;68797;49.782;19.054;2024-01-06T10:31:19;123.68;;;59.42;;
79330;SDS011;68797;49.782;19.054;2024-01-06T10:33:49;130.70;;;63.72;;
79330;SDS011;68797;49.782;19.054;2024-01-06T10:39:09;116.05;;;58.72;;
79330;SDS011;68797;49.782;19.054;2024-01-06T10:41:37;116.60;;;59.28;;
79330;SDS011;68797;49.782;19.054;2024-01-06T10:44:11;113.22;;;57.63;;
79330;SDS011;68797;49.782;19.054;2024-01-06T10:46:39;127.28;;;61.40;;
79330;SDS011;68797;49.782;19.054;2024-01-06T10:49:09;134.43;;;62.45;;
79330;SDS011;68797;49.782;19.054;2024-01-06T10:51:41;109.45;;;57.65;;
79330;SDS011;68797;49.782;19.054;2024-01-06T10:54:13;121.82;;;60.35;;
79330;SDS011;68797;49.782;19.054;2024-01-06T10:56:42;111.45;;;53.63;;
79330;SDS011;68797;49.782;19.054;2024-01-06T10:59:11;151.80;;;72.35;;
79330;SDS011;68797;49.782;19.054;2024-01-06T11:01:38;122.03;;;61.92;;
79330;SDS011;68797;49.782;19.054;2024-01-06T11:04:06;125.45;;;60.80;;
79330;SDS011;68797;49.782;19.054;2024-01-06T11:11:44;130.95;;;59.10;;
79330;SDS011;68797;49.782;19.054;2024-01-06T11:14:36;115.60;;;58.58;;
79330;SDS011;68797;49.782;19.054;2024-01-06T11:17:05;121.13;;;60.70;;
79330;SDS011;68797;49.782;19.054;2024-01-06T11:24:49;152.35;;;73.22;;
79330;SDS011;68797;49.782;19.054;2024-01-06T11:27:17;146.23;;;69.13;;
79330;SDS011;68797;49.782;19.054;2024-01-06T11:29:51;105.40;;;52.92;;
79330;SDS011;68797;49.782;19.054;2024-01-06T11:35:10;109.60;;;51.58;;
79330;SDS011;68797;49.782;19.054;2024-01-06T11:42:45;116.90;;;51.58;;
79330;SDS011;68797;49.782;19.054;2024-01-06T11:45:14;111.88;;;50.08;;
79330;SDS011;68797;49.782;19.054;2024-01-06T11:47:47;117.68;;;57.70;;
79330;SDS011;68797;49.782;19.054;2024-01-06T11:50:16;114.25;;;55.85;;
79330;SDS011;68797;49.782;19.054;2024-01-06T11:52:44;102.22;;;47.38;;
79330;SDS011;68797;49.782;19.054;2024-01-06T11:55:11;117.05;;;57.60;;
79330;SDS011;68797;49.782;19.054;2024-01-06T11:57:41;106.13;;;48.80;;
79330;SDS011;68797;49.782;19.054;2024-01-06T12:00:09;108.30;;;51.58;;
79330;SDS011;68797;49.782;19.054;2024-01-06T12:02:36;115.90;;;54.13;;
79330;SDS011;68797;49.782;19.054;2024-01-06T12:05:11;114.38;;;57.65;;
79330;SDS011;68797;49.782;19.054;2024-01-06T12:07:41;114.45;;;55.33;;
79330;SDS011;68797;49.782;19.054;2024-01-06T12:10:11;119.90;;;53.03;;
79330;SDS011;68797;49.782;19.054;2024-01-06T12:12:38;106.35;;;48.33;;
79330;SDS011;68797;49.782;19.054;2024-01-06T12:15:07;97.50;;;44.97;;
79330;SDS011;68797;49.782;19.054;2024-01-06T12:17:38;110.18;;;48.60;;
79330;SDS011;68797;49.782;19.054;2024-01-06T12:20:09;100.20;;;44.53;;
79330;SDS011;68797;49.782;19.054;2024-01-06T12:22:36;106.22;;;46.67;;
79330;SDS011;68797;49.782;19.054;2024-01-06T12:25:10;103.30;;;45.65;;
79330;SDS011;68797;49.782;19.054;2024-01-06T12:27:40;101.85;;;43.83;;
79330;SDS011;68797;49.782;19.054;2024-01-06T12:33:09;92.75;;;38.95;;
79330;SDS011;68797;49.782;19.054;2024-01-06T12:35:42;94.82;;;41.50;;
79330;SDS011;68797;49.782;19.054;2024-01-06T12:38:09;123.50;;;47.50;;
79330;SDS011;68797;49.782;19.054;2024-01-06T12:40:41;139.55;;;60.42;;
79330;SDS011;68797;49.782;19.054;2024-01-06T12:43:08;79.55;;;32.65;;
79330;SDS011;68797;49.782;19.054;2024-01-06T12:45:35;100.38;;;43.65;;
79330;SDS011;68797;49.782;19.054;2024-01-06T12:48:02;111.55;;;43.20;;
79330;SDS011;68797;49.782;19.054;2024-01-06T12:50:34;196.48;;;56.20;;
79330;SDS011;68797;49.782;19.054;2024-01-06T12:53:00;186.32;;;54.63;;
79330;SDS011;68797;49.782;19.054;2024-01-06T12:55:27;177.15;;;58.53;;
79330;SDS011;68797;49.782;19.054;2024-01-06T12:57:54;148.73;;;51.03;;
79330;SDS011;68797;49.782;19.054;2024-01-06T13:00:25;131.68;;;44.22;;
79330;SDS011;68797;49.782;19.054;2024-01-06T13:02:53;163.50;;;60.42;;
79330;SDS011;68797;49.782;19.054;2024-01-06T13:05:20;133.32;;;46.45;;
79330;SDS011;68797;49.782;19.054;2024-01-06T13:07:47;128.60;;;49.22;;
79330;SDS011;68797;49.782;19.054;2024-01-06T13:10:18;104.72;;;41.05;;
79330;SDS011;68797;49.782;19.054;2024-01-06T13:12:45;116.97;;;45.42;;
79330;SDS011;68797;49.782;19.054;2024-01-06T13:15:12;99.85;;;38.85;;
79330;SDS011;68797;49.782;19.054;2024-01-06T13:17:40;93.63;;;40.38;;
79330;SDS011;68797;49.782;19.054;2024-01-06T13:20:07;80.05;;;34.03;;
79330;SDS011;68797;49.782;19.054;2024-01-06T13:22:36;89.28;;;38.78;;
79330;SDS011;68797;49.782;19.054;2024-01-06T13:25:08;90.03;;;38.95;;
79330;SDS011;68797;49.782;19.054;2024-01-06T13:27:42;81.47;;;36.00;;
79330;SDS011;68797;49.782;19.054;2024-01-06T13:30:09;115.82;;;48.85;;
79330;SDS011;68797;49.782;19.054;2024-01-06T13:32:42;153.30;;;60.85;;
79330;SDS011;68797;49.782;19.054;2024-01-06T13:35:09;141.50;;;58.63;;
79330;SDS011;68797;49.782;19.054;2024-01-06T13:37:38;103.80;;;45.42;;
79330;SDS011;68797;49.782;19.054;2024-01-06T13:40:08;107.15;;;44.15;;
79330;SDS011;68797;49.782;19.054;2024-01-06T13:42:37;108.38;;;41.42;;
79330;SDS011;68797;49.782;19.054;2024-01-06T13:45:04;94.65;;;39.38;;
79330;SDS011;68797;49.782;19.054;2024-01-06T13:47:31;90.97;;;38.65;;
79330;SDS011;68797;49.782;19.054;2024-01-06T13:49:58;96.75;;;38.17;;
79330;SDS011;68797;49.782;19.054;2024-01-06T13:52:26;75.15;;;31.08;;
79330;SDS011;68797;49.782;19.054;2024-01-06T13:54:53;83.10;;;33.88;;
79330;SDS011;68797;49.782;19.054;2024-01-06T13:57:19;80.95;;;33.65;;
79330;SDS011;68797;49.782;19.054;2024-01-06T13:59:46;101.65;;;40.20;;
79330;SDS011;68797;49.782;19.054;2024-01-06T14:02:13;93.25;;;35.25;;
79330;SDS011;68797;49.782;19.054;2024-01-06T14:07:08;74.85;;;33.63;;
79330;SDS011;68797;49.782;19.054;2024-01-06T14:09:36;93.70;;;35.05;;
79330;SDS011;68797;49.782;19.054;2024-01-06T14:12:03;82.00;;;30.65;;
79330;SDS011;68797;49.782;19.054;2024-01-06T14:14:32;93.25;;;38.05;;
79330;SDS011;68797;49.782;19.054;2024-01-06T14:16:59;127.30;;;54.75;;
79330;SDS011;68797;49.782;19.054;2024-01-06T14:19:27;100.63;;;46.55;;
79330;SDS011;68797;49.782;19.054;2024-01-06T14:21:54;154.00;;;73.85;;
79330;SDS011;68797;49.782;19.054;2024-01-06T14:24:21;83.07;;;36.15;;
79330;SDS011;68797;49.782;19.054;2024-01-06T14:26:52;80.72;;;36.40;;
79330;SDS011;68797;49.782;19.054;2024-01-06T14:29:21;80.30;;;36.72;;
79330;SDS011;68797;49.782;19.054;2024-01-06T14:31:48;82.05;;;35.25;;
79330;SDS011;68797;49.782;19.054;2024-01-06T14:34:15;89.57;;;33.38;;
79330;SDS011;68797;49.782;19.054;2024-01-06T14:36:43;80.55;;;33.80;;
79330;SDS011;68797;49.782;19.054;2024-01-06T14:39:14;82.00;;;36.47;;
79330;SDS011;68797;49.782;19.054;2024-01-06T14:41:41;77.20;;;36.10;;
79330;SDS011;68797;49.782;19.054;2024-01-06T14:44:08;83.10;;;33.80;;
79330;SDS011;68797;49.782;19.054;2024-01-06T14:46:36;68.40;;;30.48;;
79330;SDS011;68797;49.782;19.054;2024-01-06T14:49:04;68.72;;;28.38;;
79330;SDS011;68797;49.782;19.054;2024-01-06T14:51:31;67.13;;;30.27;;
79330;SDS011;68797;49.782;19.054;2024-01-06T14:58:53;61.67;;;25.70;;
79330;SDS011;68797;49.782;19.054;2024-01-06T15:01:20;58.22;;;27.77;;
79330;SDS011;68797;49.782;19.054;2024-01-06T15:03:47;66.20;;;30.27;;
79330;SDS011;68797;49.782;19.054;2024-01-06T15:06:13;61.80;;;29.13;;
79330;SDS011;68797;49.782;19.054;2024-01-06T15:08:44;59.53;;;27.58;;
79330;SDS011;68797;49.782;19.054;2024-01-06T15:11:16;64.25;;;27.17;;
79330;SDS011;68797;49.782;19.054;2024-01-06T15:13:45;63.10;;;26.05;;
79330;SDS011;68797;49.782;19.054;2024-01-06T15:16:11;86.57;;;40.40;;
79330;SDS011;68797;49.782;19.054;2024-01-06T15:18:38;60.80;;;25.65;;
79330;SDS011;68797;49.782;19.054;2024-01-06T15:21:06;95.93;;;38.58;;
79330;SDS011;68797;49.782;19.054;2024-01-06T15:23:34;67.63;;;27.88;;